Data for 08/06/2009

Time Sea-Level Adjusted Pressure Absolute Pressure Temperature Relative Humidity Dew Point   
(mb) (inHg) (mb) (inHg) (C) (F) (%) (C) (F)
00:05 1021 30.15 850 25.1 16.9 62.4 56 8 46.4
00:10 1021 30.15 851 25.13 16.8 62.2 57 8.2 46.8
00:15 1021 30.15 850 25.1 16.6 61.9 59 8.6 47.5
00:20 1021 30.15 850 25.1 16.4 61.5 58 8.3 46.9
00:25 1021 30.15 850 25.1 16.4 61.4 58 8.3 46.9
00:30 1021 30.15 850 25.1 16.3 61.4 60 8.7 47.6
00:35 1021 30.15 850 25.1 16.2 61.1 61 8.7 47.7
00:40 1021 30.15 850 25.1 16.2 61.1 58 7.9 46.3
00:45 1021 30.15 850 25.1 16.3 61.3 58 8.1 46.5
00:50 1020 30.12 850 25.1 16.2 61.2 57 7.8 46.1
00:55 1020 30.12 849 25.07 16.6 61.8 53 7.1 44.8
01:00 1020 30.12 849 25.07 16.8 62.3 53 7.2 44.9
01:05 1020 30.12 849 25.07 16.8 62.3 53 7.4 45.3
01:10 1020 30.12 849 25.07 16.7 62.1 54 7.5 45.5
01:15 1020 30.12 849 25.07 16.7 62.1 54 7.6 45.7
01:20 1020 30.12 849 25.07 16.7 62.1 55 7.6 45.7
01:25 1020 30.12 849 25.07 16.7 62 56 7.9 46.2
01:30 1020 30.12 849 25.07 16.5 61.7 56 7.8 46
01:35 1020 30.12 849 25.07 16.5 61.6 56 7.9 46.2
01:40 1019 30.09 849 25.07 16.4 61.5 57 7.9 46.3
01:45 1019 30.09 848 25.04 16.3 61.3 57 7.7 45.9
01:50 1019 30.09 848 25.04 16.4 61.4 56 7.8 46
01:55 1019 30.09 848 25.04 16.3 61.3 57 7.7 45.9
02:00 1019 30.09 848 25.04 16.3 61.3 57 7.9 46.2
02:05 1019 30.09 848 25.04 16.2 61.2 58 7.9 46.3
02:10 1019 30.09 848 25.04 16.2 61.1 58 8 46.3
02:15 1019 30.09 848 25.04 16.1 61 58 8 46.5
02:20 1019 30.09 848 25.04 16.1 60.9 59 8.1 46.6
02:25 1019 30.09 848 25.04 16.1 61 60 8.4 47.1
02:30 1019 30.09 848 25.04 15.7 60.3 64 9.1 48.4
02:35 1019 30.09 848 25.04 15.2 59.4 66 9 48.2
02:40 1020 30.12 849 25.07 15 58.9 70 9.6 49.3
02:45 1020 30.12 849 25.07 14.8 58.6 72 9.9 49.8
02:50 1020 30.12 849 25.07 14.7 58.5 73 10 49.9
02:55 1020 30.12 849 25.07 14.5 58.1 75 10.1 50.2
03:00 1020 30.12 850 25.1 14 57.2 81 10.9 51.6
03:05 1021 30.15 850 25.1 13.6 56.5 81 10.4 50.8
03:10 1020 30.12 850 25.1 13.8 56.9 81 10.7 51.2
03:15 1020 30.12 850 25.1 13.5 56.4 84 10.9 51.7
03:20 1020 30.12 850 25.1 13.3 55.9 84 10.7 51.3
03:25 1020 30.12 849 25.07 13.4 56 86 11.1 52
03:30 1020 30.12 849 25.07 13.2 55.7 87 11.1 51.9
03:35 1020 30.12 849 25.07 13 55.3 88 11.1 51.9
03:40 1020 30.12 849 25.07 12.8 55.1 90 11.2 52.2
03:45 1020 30.12 849 25.07 12.7 54.9 91 11.3 52.4
03:50 1019 30.09 849 25.07 12.7 54.8 90 11.1 51.9
03:55 1019 30.09 848 25.04 12.6 54.7 90 11 51.7
04:00 1019 30.09 848 25.04 12.6 54.7 91 11.2 52.2
04:05 1019 30.09 848 25.04 12.5 54.5 92 11.3 52.4
04:10 1018 30.06 847 25.01 12.5 54.5 92 11.2 52.1
04:15 1018 30.06 847 25.01 12.6 54.6 90 11 51.8
04:20 1018 30.06 847 25.01 12.7 54.8 90 11 51.8
04:25 1017 30.03 847 25.01 12.7 54.9 88 10.7 51.3
04:30 1017 30.03 847 25.01 12.8 55 88 10.8 51.5
04:35 1017 30.03 846 24.98 12.8 55.1 87 10.7 51.3
04:40 1017 30.03 846 24.98 13 55.3 86 10.8 51.4
04:45 1017 30.03 846 24.98 13.1 55.7 85 10.7 51.3
04:50 1017 30.03 846 24.98 13.2 55.7 85 10.7 51.2
04:55 1017 30.03 846 24.98 13.3 56 85 10.9 51.6
05:00 1017 30.03 846 24.98 13.4 56.1 84 10.7 51.3
05:05 1016 30 846 24.98 13.5 56.2 83 10.7 51.3
05:10 1017 30.03 846 24.98 13.5 56.4 83 10.7 51.3
05:15 1017 30.03 846 24.98 13.7 56.7 82 10.8 51.4
05:20 1018 30.06 847 25.01 13.8 56.8 82 10.8 51.4
05:25 1018 30.06 847 25.01 13.9 57 81 10.8 51.4
05:30 1019 30.09 848 25.04 13.9 57 83 11.1 51.9
05:35 1019 30.09 848 25.04 13.8 56.8 84 11.2 52.2
05:40 1019 30.09 848 25.04 13.8 56.8 84 11.1 52.1
05:45 1019 30.09 848 25.04 13.7 56.7 87 11.6 52.8
05:50 1019 30.09 848 25.04 13.6 56.4 87 11.5 52.7
05:55 1019 30.09 848 25.04 13.6 56.4 87 11.4 52.6
06:00 1019 30.09 848 25.04 13.4 56.2 88 11.5 52.6
06:05 1019 30.09 848 25.04 13.3 55.9 89 11.5 52.8
06:10 1018 30.06 847 25.01 12.9 55.2 91 11.5 52.7
06:15 1018 30.06 847 25.01 12.6 54.7 92 11.3 52.3
06:20 1018 30.06 847 25.01 12.5 54.5 91 11.1 52
06:25 1018 30.06 847 25.01 12.5 54.5 91 11 51.9
06:30 1018 30.06 847 25.01 12.7 54.8 90 11.1 51.9
06:35 1018 30.06 847 25.01 12.6 54.7 91 11.1 52
06:40 1017 30.03 847 25.01 12.5 54.5 90 10.9 51.7
06:45 1017 30.03 847 25.01 12.5 54.5 90 10.9 51.7
06:50 1017 30.03 846 24.98 12.5 54.4 90 10.9 51.6
06:55 1017 30.03 847 25.01 12.5 54.4 89 10.7 51.3
07:00 1017 30.03 846 24.98 12.6 54.7 90 11 51.8
07:05 1017 30.03 846 24.98 12.6 54.7 89 10.9 51.6
07:10 1017 30.03 846 24.98 12.9 55.2 88 11 51.8
07:15 1017 30.03 846 24.98 12.9 55.3 87 10.8 51.5
07:20 1017 30.03 846 24.98 13.2 55.8 85 10.8 51.5
07:25 1017 30.03 846 24.98 13.4 56.1 86 11.1 51.9
07:30 1017 30.03 846 24.98 13.6 56.6 84 11 51.7
07:35 1017 30.03 846 24.98 14 57.2 82 11 51.7
07:40 1017 30.03 846 24.98 14.2 57.6 82 11.2 52.1
07:45 1017 30.03 846 24.98 14.3 57.8 81 11.1 52
07:50 1017 30.03 846 24.98 14.6 58.2 81 11.4 52.6
07:55 1017 30.03 846 24.98 14.7 58.4 81 11.4 52.6
08:00 1017 30.03 846 24.98 14.5 58 82 11.4 52.6
08:05 1017 30.03 846 24.98 14.5 58 81 11.3 52.4
08:10 1017 30.03 846 24.98 14.3 57.8 82 11.4 52.5
08:15 1017 30.03 846 24.98 14.3 57.7 83 11.5 52.7
08:20 1017 30.03 846 24.98 14.3 57.7 83 11.5 52.7
08:25 1017 30.03 846 24.98 14.6 58.2 80 11.2 52.2
08:30 1017 30.03 846 24.98 15.1 59.3 79 11.6 52.9
08:35 1017 30.03 846 24.98 14.9 58.8 85 12.4 54.3
08:40 1017 30.03 846 24.98 14.9 58.9 85 12.4 54.4
08:45 1017 30.03 847 25.01 14.7 58.4 87 12.5 54.5
08:50 1017 30.03 847 25.01 14.6 58.2 86 12.3 54.1
08:55 1018 30.06 847 25.01 14.5 58 88 12.4 54.4
09:00 1018 30.06 847 25.01 14.3 57.8 90 12.7 54.9
09:05 1018 30.06 847 25.01 13.8 56.9 92 12.5 54.5
09:10 1018 30.06 847 25.01 13.8 56.9 91 12.4 54.3
09:15 1017 30.03 847 25.01 13.7 56.7 92 12.5 54.5
09:20 1017 30.03 847 25.01 14 57.1 90 12.3 54.1
09:25 1017 30.03 847 25.01 14.7 58.4 86 12.3 54.2
09:30 1017 30.03 846 24.98 14.4 57.8 84 11.7 53
09:35 1017 30.03 846 24.98 14.5 58.1 85 12 53.6
09:40 1017 30.03 846 24.98 15.9 60.6 76 11.7 53
09:45 1017 30.03 846 24.98 16.6 62 73 11.8 53.3
09:50 1017 30.03 846 24.98 16.9 62.4 76 12.6 54.7
09:55 1017 30.03 846 24.98 16.4 61.5 76 12.2 54
10:00 1017 30.03 846 24.98 16.3 61.4 75 11.9 53.3
10:05 1016 30 846 24.98 16.5 61.7 74 11.8 53.3
10:10 1016 30 846 24.98 16.5 61.6 75 12 53.7
10:15 1016 30 846 24.98 16.4 61.5 74 11.7 53.1
10:20 1016 30 846 24.98 16.9 62.4 72 12 53.5
10:25 1016 30 845 24.95 17.4 63.3 68 11.5 52.6
10:30 1016 30 845 24.95 17.9 64.2 67 11.7 53.1
10:35 1016 30 845 24.95 18.4 65.2 66 12.1 53.8
10:40 1016 30 845 24.95 18.8 65.8 67 12.6 54.6
10:45 1016 30 845 24.95 18.8 65.9 65 12.2 53.9
10:50 1016 30 845 24.95 18.4 65 65 11.8 53.2
10:55 1016 30 845 24.95 18.6 65.4 63 11.5 52.6
11:00 1016 30 845 24.95 19.3 66.7 58 11 51.8
11:05 1016 30 845 24.95 19.6 67.3 59 11.5 52.8
11:10 1015 29.97 845 24.95 19.5 67 61 11.8 53.3
11:15 1015 29.97 845 24.95 20.1 68.1 58 11.8 53.2
11:20 1015 29.97 845 24.95 21 69.7 57 12.3 54.2
11:25 1015 29.97 845 24.95 21.3 70.4 56 12.2 54
11:30 1015 29.97 844 24.92 21.4 70.4 56 12.3 54.1
11:35 1015 29.97 844 24.92 21.5 70.6 55 12.3 54.1
11:40 1015 29.97 844 24.92 21.8 71.2 53 12 53.6
11:45 1015 29.97 844 24.92 22.3 72.1 55 12.8 55.1
11:50 1015 29.97 844 24.92 22.1 71.8 53 12.1 53.8
11:55 1015 29.97 844 24.92 21.9 71.3 53 12 53.5
12:00 1015 29.97 844 24.92 22.2 72 51 11.8 53.2
12:05 1015 29.97 844 24.92 22.3 72.1 50 11.5 52.8
12:10 1015 29.97 844 24.92 22.6 72.6 50 11.7 53
12:15 1015 29.97 844 24.92 22.9 73.2 48 11.5 52.7
12:20 1015 29.97 844 24.92 22.7 72.9 50 11.8 53.3
12:25 1015 29.97 844 24.92 22.2 71.9 50 11.4 52.5
12:30 1015 29.97 844 24.92 22.4 72.3 48 11.1 52
12:35 1015 29.97 844 24.92 23.2 73.8 49 12.1 53.7
12:40 1014 29.94 844 24.92 23.2 73.8 49 12 53.6
12:45 1014 29.94 844 24.92 23.2 73.8 49 12 53.5
12:50 1014 29.94 843 24.89 23.7 74.6 47 12 53.5
12:55 1014 29.94 843 24.89 24.2 75.5 47 12.3 54.1
13:00 1014 29.94 843 24.89 24.2 75.6 48 12.8 55
13:05 1014 29.94 843 24.89 23.9 75 49 12.9 55.2
13:10 1014 29.94 843 24.89 23.6 74.5 49 12.4 54.2
13:15 1014 29.94 843 24.89 23.9 74.9 48 12.4 54.4
13:20 1014 29.94 843 24.89 23.7 74.7 48 12.3 54.2
13:25 1014 29.94 843 24.89 23.4 74.1 48 12 53.6
13:30 1014 29.94 843 24.89 23.9 74.9 49 12.5 54.6
13:35 1014 29.94 843 24.89 24.3 75.7 47 12.5 54.4
13:40 1014 29.94 843 24.89 24.8 76.6 46 12.5 54.6
13:45 1013 29.91 843 24.89 25.4 77.7 43 12.3 54.1
13:50 1013 29.91 843 24.89 24.9 76.8 46 12.8 55
13:55 1013 29.91 842 24.86 24 75.2 47 12.2 54
14:00 1013 29.91 842 24.86 24 75.3 46 11.9 53.5
14:05 1013 29.91 842 24.86 24.4 75.8 45 11.9 53.4
14:10 1013 29.91 842 24.86 24.7 76.4 46 12.4 54.2
14:15 1013 29.91 842 24.86 24.8 76.6 45 12.3 54.2
14:20 1013 29.91 842 24.86 25 76.9 44 12.2 53.9
14:25 1013 29.91 842 24.86 24.2 75.5 42 10.8 51.5
14:30 1013 29.91 842 24.86 23.9 75.1 43 10.7 51.3
14:35 1013 29.91 842 24.86 23.5 74.3 43 10.3 50.5
14:40 1013 29.91 842 24.86 23.7 74.7 44 10.8 51.4
14:45 1013 29.91 842 24.86 23.4 74 45 11.1 51.9
14:50 1012 29.88 842 24.86 22.8 73.1 49 11.7 53
14:55 1012 29.88 842 24.86 22.6 72.7 49 11.4 52.6
15:00 1012 29.88 841 24.83 22.5 72.5 53 12.6 54.6
15:05 1012 29.88 841 24.83 22.6 72.8 52 12.3 54.2
15:10 1012 29.88 841 24.83 22.7 72.9 52 12.6 54.6
15:15 1012 29.88 841 24.83 23 73.4 53 13.1 55.7
15:20 1012 29.88 841 24.83 22.9 73.1 53 12.9 55.2
15:25 1012 29.88 841 24.83 23.1 73.6 50 12.3 54.1
15:30 1012 29.88 841 24.83 23.1 73.6 49 11.8 53.3
15:35 1011 29.85 841 24.83 23.1 73.6 50 12.2 54
15:40 1011 29.85 840 24.81 23.3 73.9 49 12.1 53.9
15:45 1011 29.85 841 24.83 23.8 74.9 49 12.5 54.5
15:50 1011 29.85 841 24.83 24 75.2 51 13.5 56.3
15:55 1011 29.85 840 24.81 23.8 74.8 50 13 55.3
16:00 1011 29.85 840 24.81 23.6 74.4 51 13.1 55.6
16:05 1011 29.85 840 24.81 22.9 73.3 51 12.5 54.5
16:10 1011 29.85 840 24.81 23.1 73.6 51 12.7 54.9
16:15 1011 29.85 840 24.81 23 73.4 52 12.8 55
16:20 1011 29.85 840 24.81 23.1 73.6 49 11.9 53.3
16:25 1011 29.85 840 24.81 23.6 74.4 48 12 53.5
16:30 1011 29.85 840 24.81 23.8 74.8 46 11.7 53.1
16:35 1011 29.85 840 24.81 23.8 74.9 45 11.3 52.4
16:40 1010 29.83 840 24.81 24 75.3 45 11.6 52.9
16:45 1010 29.83 840 24.81 23.9 74.9 52 13.4 56.2
16:50 1011 29.85 840 24.81 23 73.5 54 13.4 56.1
16:55 1011 29.85 840 24.81 22.9 73.2 56 13.7 56.7
17:00 1011 29.85 840 24.81 22.8 73 56 13.6 56.5
17:05 1011 29.85 840 24.81 22.4 72.2 59 14 57.2
17:10 1011 29.85 840 24.81 22.2 71.9 58 13.6 56.5
17:15 1010 29.83 840 24.81 21.9 71.5 58 13.4 56.1
17:20 1010 29.83 840 24.81 21.8 71.2 58 13.2 55.8
17:25 1010 29.83 839 24.78 21.6 70.9 59 13.4 56.1
17:30 1010 29.83 839 24.78 21.5 70.7 61 13.8 56.8
17:35 1010 29.83 839 24.78 21.5 70.7 61 13.7 56.7
17:40 1010 29.83 840 24.81 21.4 70.6 62 13.9 57
17:45 1010 29.83 840 24.81 21.4 70.6 62 13.9 57.1
17:50 1010 29.83 840 24.81 21.3 70.3 61 13.5 56.4
17:55 1010 29.83 839 24.78 21.1 70 61 13.4 56.1
18:00 1010 29.83 839 24.78 21 69.7 58 12.4 54.4
18:05 1010 29.83 839 24.78 20.8 69.5 58 12.3 54.2
18:10 1010 29.83 839 24.78 20.7 69.2 58 12.3 54.1
18:15 1010 29.83 839 24.78 20.7 69.2 58 12.2 53.9
18:20 1010 29.83 839 24.78 20.7 69.2 57 11.9 53.4
18:25 1011 29.85 840 24.81 20.8 69.4 54 11.4 52.5
18:30 1011 29.85 841 24.83 20.4 68.7 62 12.9 55.3
18:35 1012 29.88 841 24.83 17.6 63.6 75 13.2 55.8
18:40 1012 29.88 842 24.86 15.8 60.4 77 11.8 53.3
18:45 1012 29.88 842 24.86 14.9 58.8 79 11.3 52.3
18:50 1013 29.91 842 24.86 14.4 57.9 76 10.3 50.5
18:55 1013 29.91 842 24.86 14.4 57.9 75 10.1 50.3
19:00 1013 29.91 842 24.86 14.2 57.6 78 10.6 51
19:05 1013 29.91 842 24.86 14.1 57.4 78 10.4 50.7
19:10 1013 29.91 842 24.86 14.1 57.4 79 10.6 51.1
19:15 1013 29.91 842 24.86 13.8 56.9 81 10.6 51
19:20 1013 29.91 842 24.86 13.7 56.6 81 10.6 51.1
19:25 1013 29.91 842 24.86 13.6 56.5 80 10.3 50.6
19:30 1013 29.91 842 24.86 13.8 56.9 81 10.6 51
19:35 1013 29.91 842 24.86 13.8 56.9 79 10.4 50.6
19:40 1013 29.91 842 24.86 13.8 56.9 80 10.4 50.7
19:45 1013 29.91 842 24.86 13.9 56.9 79 10.3 50.5
19:50 1013 29.91 842 24.86 13.8 56.9 79 10.2 50.4
19:55 1013 29.91 843 24.89 13.9 57.1 78 10.1 50.2
20:00 1014 29.94 843 24.89 14.1 57.3 78 10.3 50.6
20:05 1014 29.94 843 24.89 14.2 57.5 78 10.5 50.9
20:10 1014 29.94 843 24.89 14.4 57.8 77 10.4 50.7
20:15 1015 29.97 844 24.92 14.5 58 76 10.4 50.8
20:20 1015 29.97 844 24.92 14.6 58.3 78 10.9 51.6
20:25 1015 29.97 844 24.92 14.5 58 80 11.1 52
20:30 1015 29.97 844 24.92 14.1 57.4 83 11.3 52.4
20:35 1015 29.97 844 24.92 13.8 56.8 86 11.5 52.6
20:40 1015 29.97 844 24.92 13.7 56.6 87 11.6 52.9
20:45 1014 29.94 844 24.92 13.5 56.3 89 11.7 53.1
20:50 1013 29.91 843 24.89 13.2 55.7 92 11.9 53.4
20:55 1014 29.94 843 24.89 13 55.5 91 11.7 53
21:00 1015 29.97 844 24.92 13.2 55.8 90 11.6 52.9
21:05 1015 29.97 844 24.92 13.3 55.9 90 11.7 53.1
21:10 1015 29.97 844 24.92 13.5 56.2 89 11.7 53.1
21:15 1015 29.97 844 24.92 13.5 56.3 88 11.6 52.9
21:20 1015 29.97 844 24.92 13.6 56.5 88 11.6 52.9
21:25 1014 29.94 844 24.92 13.8 56.9 87 11.7 53
21:30 1015 29.97 844 24.92 14 57.2 81 10.9 51.6
21:35 1015 29.97 844 24.92 14.2 57.6 79 10.7 51.2
21:40 1015 29.97 844 24.92 14.3 57.7 78 10.6 51.1
21:45 1015 29.97 844 24.92 14.3 57.7 83 11.5 52.6
21:50 1015 29.97 844 24.92 14.2 57.5 85 11.7 53
21:55 1015 29.97 844 24.92 14.1 57.4 87 12.1 53.7
22:00 1015 29.97 844 24.92 14 57.1 83 11.2 52.1
22:05 1015 29.97 844 24.92 14.1 57.3 85 11.6 52.8
22:10 1015 29.97 844 24.92 14.3 57.7 81 11.2 52.1
22:15 1015 29.97 844 24.92 14.4 57.8 83 11.5 52.7
22:20 1015 29.97 844 24.92 14.4 57.9 82 11.4 52.5
22:25 1015 29.97 844 24.92 14.3 57.8 84 11.7 53
22:30 1015 29.97 844 24.92 14.1 57.4 85 11.7 53
22:35 1015 29.97 844 24.92 14 57.1 89 12.2 53.9
22:40 1015 29.97 844 24.92 13.6 56.6 90 12 53.7
22:45 1015 29.97 844 24.92 13.5 56.3 92 12.2 53.9
22:50 1014 29.94 844 24.92 13.3 56 92 12 53.7
22:55 1014 29.94 843 24.89 13.2 55.7 92 11.9 53.4
23:00 1014 29.94 843 24.89 13.2 55.8 92 11.9 53.4
23:05 1014 29.94 843 24.89 13.1 55.5 91 11.7 53
23:10 1014 29.94 843 24.89 12.9 55.3 92 11.6 52.9
23:15 1014 29.94 843 24.89 12.9 55.1 91 11.5 52.6
23:20 1014 29.94 843 24.89 12.8 55 92 11.5 52.7
23:25 1014 29.94 843 24.89 12.8 55 91 11.4 52.5
23:30 1014 29.94 843 24.89 12.9 55.2 91 11.4 52.6
23:35 1014 29.94 843 24.89 12.9 55.1 91 11.5 52.7
23:40 1014 29.94 843 24.89 12.8 55 90 11.3 52.3
23:45 1014 29.94 843 24.89 12.9 55.2 90 11.2 52.2
23:50 1014 29.94 843 24.89 13 55.4 89 11.2 52.1
23:55 1013 29.91 843 24.89 12.9 55.2 89 11.2 52.1
24:00 1013 29.91 842 24.86 12.8 55 89 11 51.8